Time;durP1;ratioP1;P1;durP2;ratioP2;P2;SDS_P1;SDS_P2;PMS_P1;PMS_P2;Temp;Humidity;BMP_temperature;BMP_pressure;BME280_temperature;BME280_humidity;BME280_pressure;Samples;Min_cycle;Max_cycle;Signal;HPM_P1;HPM_P2
2022/09/04 00:00:09;;;;;;;4.50;1.30;;;14.30;74.60;;;;;;5054977;28;20717;-90
2022/09/04 00:02:50;;;;;;;10.07;1.43;;;14.20;74.80;;;;;;5054393;28;20604;-91
2022/09/04 00:05:27;;;;;;;10.77;2.00;;;14.30;74.80;;;;;;5054796;28;20176;-90
2022/09/04 00:08:27;;;;;;;2.90;1.40;;;14.30;74.80;;;;;;5054287;28;20286;-90
2022/09/04 00:11:30;;;;;;;2.33;1.30;;;14.30;74.90;;;;;;5054655;28;20191;-90
2022/09/04 00:14:41;;;;;;;3.70;1.40;;;14.20;75.20;;;;;;5058576;28;20211;-90
2022/09/04 00:17:27;;;;;;;2.47;1.10;;;14.20;75.40;;;;;;5062893;28;20279;-89
2022/09/04 00:20:21;;;;;;;1.60;1.10;;;14.20;75.40;;;;;;5058787;28;20259;-91
2022/09/04 00:23:37;;;;;;;1.53;1.30;;;14.20;75.50;;;;;;5066439;28;20176;-91
2022/09/04 00:26:51;;;;;;;4.17;1.40;;;14.20;75.50;;;;;;5070170;28;20172;-91
2022/09/04 00:30:14;;;;;;;4.57;1.40;;;14.20;75.50;;;;;;5215977;23;20230;-92
2022/09/04 00:32:54;;;;;;;4.63;1.43;;;14.10;75.70;;;;;;5078395;28;20208;-92
2022/09/04 00:35:49;;;;;;;1.57;1.20;;;14.20;75.90;;;;;;5056487;28;20190;-91
2022/09/04 00:38:53;;;;;;;4.30;1.50;;;14.10;75.80;;;;;;5062347;28;20202;-91
2022/09/04 00:42:05;;;;;;;1.37;1.20;;;14.20;75.90;;;;;;5053453;28;20187;-91
2022/09/04 00:45:16;;;;;;;1.83;1.10;;;14.20;75.90;;;;;;5070496;28;20172;-91
2022/09/04 00:48:20;;;;;;;;;;;;;;;;;;;;;
2022/09/04 00:51:31;;;;;;;;;;;;;;;;;;;;;
2022/09/04 00:54:31;;;;;;;2.10;1.33;;;14.10;76.00;;;;;;5050673;28;20208;-91
2022/09/04 01:00:04;;;;;;;4.10;1.43;;;14.10;76.10;;;;;;5110807;23;20236;-92
2022/09/04 01:02:53;;;;;;;5.77;1.30;;;14.10;76.20;;;;;;5049232;28;20175;-92
2022/09/04 01:06:00;;;;;;;3.37;1.50;;;14.00;76.30;;;;;;5054424;28;20188;-91
2022/09/04 01:08:54;;;;;;;1.57;1.30;;;14.00;76.30;;;;;;5065371;28;20196;-91
2022/09/04 01:11:53;;;;;;;2.77;1.50;;;14.00;76.10;;;;;;5074964;28;20211;-92
2022/09/04 01:14:43;;;;;;;2.63;1.37;;;14.10;76.00;;;;;;5076270;28;20172;-92
2022/09/04 01:18:08;;;;;;;;;;;;;;;;;;;;;
2022/09/04 01:20:51;;;;;;;3.13;1.27;;;14.00;75.90;;;;;;5033556;28;20188;-90
2022/09/04 01:24:01;;;;;;;3.63;1.40;;;14.00;76.00;;;;;;5076528;28;20168;-92
2022/09/04 01:27:16;;;;;;;2.03;1.10;;;14.00;75.90;;;;;;5075860;28;20172;-91
2022/09/04 01:29:57;;;;;;;3.97;1.60;;;14.00;75.90;;;;;;5072876;28;20212;-92
2022/09/04 01:32:52;;;;;;;4.50;1.30;;;14.00;75.90;;;;;;5075250;28;20176;-91
2022/09/04 01:35:37;;;;;;;6.87;1.43;;;13.90;76.00;;;;;;5075897;28;20186;-92
2022/09/04 01:38:38;;;;;;;4.53;1.43;;;13.80;76.30;;;;;;5074195;28;20229;-92
2022/09/04 01:41:23;;;;;;;1.53;1.27;;;13.80;76.30;;;;;;5074599;28;20163;-92
2022/09/04 01:43:53;;;;;;;1.93;1.53;;;13.70;76.50;;;;;;5074392;28;20168;-91
2022/09/04 01:46:40;;;;;;;4.70;1.40;;;13.60;76.90;;;;;;5076453;28;20160;-92
2022/09/04 01:49:36;;;;;;;1.63;1.30;;;13.50;77.30;;;;;;5076166;28;20204;-92
2022/09/04 01:52:27;;;;;;;3.27;1.37;;;13.30;77.80;;;;;;5076075;28;20194;-93
2022/09/04 01:55:07;;;;;;;5.37;1.23;;;13.30;77.90;;;;;;5075380;28;20170;-91
2022/09/04 01:57:53;;;;;;;3.13;1.47;;;13.20;78.20;;;;;;5069601;28;20255;-94
2022/09/04 02:00:36;;;;;;;3.10;1.30;;;13.10;78.60;;;;;;5054752;28;20199;-91
2022/09/04 02:03:45;;;;;;;3.70;1.40;;;13.00;78.90;;;;;;5066922;28;20172;-91
2022/09/04 02:09:58;;;;;;;2.40;1.30;;;12.90;79.20;;;;;;5065209;28;20182;-92
2022/09/04 02:12:54;;;;;;;1.97;1.40;;;12.80;79.40;;;;;;5069759;28;20172;-91
2022/09/04 02:15:35;;;;;;;2.43;1.60;;;12.80;79.50;;;;;;5066014;28;20176;-91
2022/09/04 02:18:47;;;;;;;3.10;1.40;;;12.80;79.60;;;;;;5072151;28;20196;-92
2022/09/04 02:21:30;;;;;;;2.93;1.40;;;12.80;79.70;;;;;;5072320;28;20239;-91
2022/09/04 02:24:15;;;;;;;2.90;1.60;;;12.80;79.70;;;;;;5069774;28;20261;-91
2022/09/04 02:27:06;;;;;;;6.27;1.87;;;12.70;79.90;;;;;;5070756;28;20172;-91
2022/09/04 02:29:47;;;;;;;3.63;1.80;;;12.60;80.00;;;;;;5074084;28;20172;-92
2022/09/04 02:32:29;;;;;;;4.73;1.30;;;12.60;80.20;;;;;;5076424;28;20169;-91
2022/09/04 02:35:08;;;;;;;1.33;1.23;;;12.60;80.10;;;;;;5074227;28;20259;-89
2022/09/04 02:37:56;;;;;;;3.27;1.47;;;12.60;80.20;;;;;;5064078;28;20200;-92
2022/09/04 02:40:51;;;;;;;4.57;1.80;;;12.60;80.40;;;;;;5075579;28;20172;-91
2022/09/04 02:43:31;;;;;;;2.33;1.53;;;12.60;80.40;;;;;;5048088;28;20187;-91
2022/09/04 02:46:16;;;;;;;1.33;1.23;;;12.60;80.40;;;;;;5072695;28;20180;-92
2022/09/04 02:49:15;;;;;;;7.20;1.60;;;12.70;80.30;;;;;;5070272;28;20216;-92
2022/09/04 02:51:55;;;;;;;1.60;1.40;;;12.70;80.00;;;;;;5072611;28;20223;-92
2022/09/04 02:54:29;;;;;;;4.17;1.47;;;12.80;79.70;;;;;;5072051;28;20163;-92
2022/09/04 02:57:13;;;;;;;4.63;1.20;;;12.90;79.20;;;;;;5071498;28;20168;-91
2022/09/04 03:00:08;;;;;;;3.10;1.47;;;12.90;78.80;;;;;;5071077;28;20183;-92
2022/09/04 03:03:15;;;;;;;3.63;1.70;;;12.80;78.70;;;;;;5074367;28;20172;-92
2022/09/04 03:06:12;;;;;;;1.27;1.10;;;12.90;78.60;;;;;;5071111;28;20171;-92
2022/09/04 03:09:15;;;;;;;1.43;1.20;;;12.90;78.00;;;;;;5068962;28;20218;-92
2022/09/04 03:11:52;;;;;;;4.37;1.50;;;12.90;77.90;;;;;;5002339;28;20238;-92
2022/09/04 03:14:33;;;;;;;1.67;1.37;;;12.90;77.70;;;;;;5066251;28;20175;-92
2022/09/04 03:17:12;;;;;;;2.23;1.37;;;12.90;77.60;;;;;;5056191;28;20587;-91
2022/09/04 03:20:10;;;;;;;2.33;1.30;;;12.80;77.40;;;;;;5055594;28;20226;-91
2022/09/04 03:22:53;;;;;;;5.07;1.60;;;12.80;77.00;;;;;;5055331;28;20229;-92
2022/09/04 03:25:27;;;;;;;4.53;1.50;;;12.80;76.70;;;;;;5055420;28;20168;-92
2022/09/04 03:27:53;;;;;;;6.37;1.73;;;12.80;77.30;;;;;;5055947;28;20195;-91
2022/09/04 03:30:19;;;;;;;2.17;1.40;;;12.80;77.00;;;;;;5054975;28;20707;-91
2022/09/04 03:33:06;;;;;;;4.37;1.40;;;12.60;77.60;;;;;;5054650;28;20172;-91
2022/09/04 03:35:34;;;;;;;4.37;1.23;;;12.40;77.90;;;;;;5055514;28;20176;-91
2022/09/04 03:38:12;;;;;;;4.83;1.67;;;12.20;78.60;;;;;;5054024;28;20741;-91
2022/09/04 03:40:51;;;;;;;4.53;1.60;;;12.00;79.10;;;;;;5055778;28;20172;-91
2022/09/04 03:43:30;;;;;;;3.57;1.50;;;11.90;79.90;;;;;;5055552;28;20183;-91
2022/09/04 03:46:25;;;;;;;2.47;1.70;;;11.80;80.40;;;;;;5055368;28;20266;-90
2022/09/04 03:49:12;;;;;;;2.07;1.40;;;11.70;80.60;;;;;;5054361;28;20700;-91
2022/09/04 03:51:57;;;;;;;5.70;1.30;;;11.70;80.70;;;;;;5054426;28;20224;-91
2022/09/04 03:54:51;;;;;;;2.80;1.60;;;11.70;80.70;;;;;;5054598;28;20617;-91
2022/09/04 03:57:27;;;;;;;2.63;1.43;;;11.70;80.50;;;;;;5054546;28;21990;-91
2022/09/04 04:00:11;;;;;;;2.63;1.60;;;11.60;80.60;;;;;;5054117;28;20195;-91
2022/09/04 04:03:09;;;;;;;2.97;1.47;;;11.60;80.40;;;;;;5054198;28;20180;-91
2022/09/04 04:05:47;;;;;;;4.10;1.47;;;11.60;80.40;;;;;;5054030;28;20176;-91
2022/09/04 04:08:46;;;;;;;3.00;1.87;;;11.60;80.30;;;;;;5054614;28;20203;-91
2022/09/04 04:11:31;;;;;;;3.67;1.70;;;11.60;80.50;;;;;;5054293;28;20215;-91
2022/09/04 04:14:24;;;;;;;1.90;1.57;;;11.60;80.20;;;;;;5054163;28;20218;-91
2022/09/04 04:17:31;;;;;;;4.40;1.67;;;11.60;80.30;;;;;;5054160;28;20164;-91
2022/09/04 04:20:30;;;;;;;3.13;1.63;;;11.70;80.40;;;;;;5054764;28;20683;-91
2022/09/04 04:22:59;;;;;;;3.40;1.70;;;11.70;80.40;;;;;;5054488;28;20172;-91
2022/09/04 04:25:34;;;;;;;3.40;1.53;;;11.60;80.50;;;;;;5053646;28;20176;-91
2022/09/04 04:28:13;;;;;;;1.77;1.60;;;11.60;80.50;;;;;;5053599;28;20248;-91
2022/09/04 04:30:49;;;;;;;4.63;2.03;;;11.60;80.50;;;;;;5053592;28;20203;-91
2022/09/04 04:33:31;;;;;;;1.67;1.57;;;11.50;80.50;;;;;;5053609;28;20171;-91
2022/09/04 04:36:17;;;;;;;5.77;2.70;;;11.40;80.70;;;;;;5053487;28;20164;-91
2022/09/04 04:38:54;;;;;;;9.30;1.57;;;11.40;81.00;;;;;;5053695;28;20187;-91
2022/09/04 04:41:29;;;;;;;3.37;1.67;;;11.30;81.20;;;;;;5054338;28;20168;-91
2022/09/04 04:44:15;;;;;;;7.30;1.80;;;11.30;81.40;;;;;;5054049;28;20172;-91
2022/09/04 04:47:06;;;;;;;4.20;2.10;;;11.40;81.60;;;;;;5053285;28;20187;-91
2022/09/04 04:49:47;;;;;;;2.30;1.50;;;11.30;81.70;;;;;;5052262;28;20200;-91
2022/09/04 04:52:50;;;;;;;2.73;1.77;;;11.40;81.90;;;;;;5053208;28;20183;-91
2022/09/04 04:55:49;;;;;;;3.43;2.07;;;11.40;82.10;;;;;;5053977;28;20267;-91
2022/09/04 04:58:31;;;;;;;11.60;2.30;;;11.40;82.20;;;;;;5046145;28;20641;-91
2022/09/04 05:01:19;;;;;;;3.03;2.20;;;11.50;82.10;;;;;;5053785;28;20172;-91
2022/09/04 05:04:01;;;;;;;2.70;1.90;;;11.50;82.00;;;;;;5053496;28;20190;-91
2022/09/04 05:06:34;;;;;;;2.73;1.83;;;11.50;82.00;;;;;;5053685;28;20175;-91
2022/09/04 05:09:09;;;;;;;3.07;1.83;;;11.60;81.90;;;;;;5053105;28;20196;-91
2022/09/04 05:11:35;;;;;;;5.50;1.80;;;11.60;81.80;;;;;;5052818;28;20195;-91
2022/09/04 05:14:19;;;;;;;2.60;1.60;;;11.70;81.90;;;;;;5053260;28;20199;-92
2022/09/04 05:17:10;;;;;;;3.30;2.10;;;11.70;81.60;;;;;;5053335;28;20573;-91
2022/09/04 05:20:35;;;;;;;3.80;1.67;;;11.80;81.40;;;;;;5053312;28;20176;-91
2022/09/04 05:23:30;;;;;;;4.30;1.70;;;11.80;81.20;;;;;;5009325;28;20650;-91
2022/09/04 05:26:26;;;;;;;3.03;1.50;;;11.80;81.00;;;;;;5048768;28;20188;-91
2022/09/04 05:29:09;;;;;;;2.57;1.80;;;11.80;81.40;;;;;;5052482;28;20191;-91
2022/09/04 05:31:49;;;;;;;5.47;1.70;;;11.80;81.60;;;;;;5052477;28;20196;-91
2022/09/04 05:34:40;;;;;;;2.87;1.70;;;12.00;81.60;;;;;;5052423;28;20168;-91
2022/09/04 05:37:17;;;;;;;2.77;1.67;;;12.20;81.60;;;;;;5053057;28;20161;-91
2022/09/04 05:39:53;;;;;;;4.60;1.80;;;12.30;81.50;;;;;;5052602;28;20615;-91
2022/09/04 05:42:44;;;;;;;2.83;1.53;;;12.40;81.30;;;;;;5052725;28;20160;-92
2022/09/04 05:45:37;;;;;;;3.23;2.23;;;12.60;81.10;;;;;;5053805;28;20214;-91
2022/09/04 05:48:21;;;;;;;2.57;1.53;;;12.80;80.60;;;;;;5053921;28;20196;-91
2022/09/04 05:51:11;;;;;;;7.60;1.67;;;12.90;80.20;;;;;;5052318;28;20295;-91
2022/09/04 05:54:08;;;;;;;4.03;1.60;;;13.00;79.80;;;;;;5052979;28;20208;-91
2022/09/04 05:57:00;;;;;;;1.50;1.40;;;13.10;79.40;;;;;;5060816;28;20167;-91
2022/09/04 05:59:47;;;;;;;5.03;1.80;;;13.20;79.10;;;;;;5062299;28;20188;-91
2022/09/04 06:02:34;;;;;;;2.47;1.63;;;13.30;78.80;;;;;;5053874;28;20172;-88
2022/09/04 06:05:18;;;;;;;3.77;1.87;;;13.40;78.20;;;;;;5052246;28;20221;-91
2022/09/04 06:08:24;;;;;;;3.60;1.77;;;13.60;77.80;;;;;;5052750;28;20188;-91
2022/09/04 06:11:02;;;;;;;1.70;1.60;;;13.70;77.60;;;;;;5053047;28;20192;-90
2022/09/04 06:14:08;;;;;;;3.67;1.67;;;13.80;76.90;;;;;;5052786;28;20168;-91
2022/09/04 06:17:25;;;;;;;2.60;1.67;;;13.90;76.50;;;;;;5052849;28;20160;-92
2022/09/04 06:20:20;;;;;;;5.43;1.53;;;14.00;76.40;;;;;;5020605;28;20653;-92
2022/09/04 06:23:16;;;;;;;3.57;1.87;;;14.10;75.80;;;;;;5055343;28;20172;-91
2022/09/04 06:26:19;;;;;;;2.97;1.60;;;14.10;75.50;;;;;;5053966;28;20180;-93
2022/09/04 06:28:51;;;;;;;5.20;1.67;;;14.20;75.40;;;;;;5053620;28;20203;-92
2022/09/04 06:31:56;;;;;;;3.37;1.73;;;14.30;74.60;;;;;;5055026;28;20613;-92
2022/09/04 06:34:50;;;;;;;6.17;1.70;;;14.40;74.60;;;;;;5059282;28;20172;-92
2022/09/04 06:37:21;;;;;;;2.73;1.60;;;14.50;74.70;;;;;;5057142;28;20222;-91
2022/09/04 06:40:07;;;;;;;3.10;1.80;;;14.60;74.00;;;;;;5051533;28;20204;-88
2022/09/04 06:42:49;;;;;;;2.63;1.57;;;14.70;73.80;;;;;;5051604;28;20214;-89
2022/09/04 06:45:20;;;;;;;1.77;1.50;;;14.80;73.40;;;;;;5053838;28;20270;-91
2022/09/04 06:48:08;;;;;;;2.03;1.60;;;14.90;73.10;;;;;;5055280;28;20211;-92
2022/09/04 06:50:42;;;;;;;3.80;1.60;;;15.00;72.60;;;;;;5055760;28;20268;-92
2022/09/04 06:53:15;;;;;;;3.70;1.50;;;15.10;72.30;;;;;;5056431;28;20222;-90
2022/09/04 06:56:28;;;;;;;3.00;1.50;;;15.20;72.00;;;;;;5057578;28;20554;-91
2022/09/04 07:02:18;;;;;;;2.83;1.60;;;15.50;70.80;;;;;;5060127;23;20239;-91
2022/09/04 07:04:57;;;;;;;5.30;1.97;;;15.70;70.20;;;;;;4940246;29;20207;-92
2022/09/04 07:07:59;;;;;;;7.87;1.47;;;15.90;69.70;;;;;;4955320;29;20238;-91
2022/09/04 07:10:33;;;;;;;2.97;1.53;;;16.00;68.20;;;;;;5002304;28;20683;-89
2022/09/04 07:13:34;;;;;;;4.90;1.90;;;16.20;68.30;;;;;;5019037;28;20230;-88
2022/09/04 07:16:24;;;;;;;1.77;1.37;;;16.30;67.30;;;;;;5018383;28;20176;-88
2022/09/04 07:19:17;;;;;;;1.80;1.47;;;16.40;66.60;;;;;;5019824;28;20203;-90
2022/09/04 07:22:03;;;;;;;2.65;1.70;;;16.50;65.90;;;;;;5042153;28;20161;-91
2022/09/04 07:25:06;;;;;;;3.53;1.67;;;16.60;65.30;;;;;;5024207;28;20185;-91
2022/09/04 07:28:09;;;;;;;4.25;1.77;;;16.70;65.50;;;;;;5056448;23;20248;-91
2022/09/04 07:31:14;;;;;;;8.35;1.95;;;16.70;65.30;;;;;;5042390;28;20541;-90
2022/09/04 07:33:58;;;;;;;5.68;1.95;;;16.90;64.60;;;;;;5011008;28;20265;-91
2022/09/04 07:36:47;;;;;;;2.92;1.60;;;17.10;63.20;;;;;;5038383;28;20170;-91
2022/09/04 07:39:42;;;;;;;3.90;2.20;;;17.10;62.50;;;;;;5052849;28;20223;-91
2022/09/04 07:42:11;;;;;;;8.02;2.38;;;17.30;62.40;;;;;;5055430;28;20606;-91
2022/09/04 07:44:54;;;;;;;5.57;2.10;;;17.40;62.20;;;;;;5054553;28;20172;-91
2022/09/04 07:47:26;;;;;;;5.05;2.33;;;17.50;62.00;;;;;;5054884;28;20192;-91
2022/09/04 07:50:05;;;;;;;6.75;2.15;;;17.60;61.90;;;;;;5054442;28;20195;-91
2022/09/04 07:53:04;;;;;;;2.40;1.90;;;17.70;62.00;;;;;;5054520;28;20164;-91
2022/09/04 07:55:45;;;;;;;3.38;1.98;;;17.70;61.80;;;;;;5054689;28;20160;-91
2022/09/04 07:59:13;;;;;;;3.40;2.05;;;17.80;61.30;;;;;;5054397;28;20630;-91
2022/09/04 08:02:12;;;;;;;16.77;2.05;;;18.00;61.00;;;;;;4939397;29;20206;-91
2022/09/04 08:04:53;;;;;;;3.47;2.20;;;18.10;60.50;;;;;;4940417;29;20164;-91
2022/09/04 08:07:50;;;;;;;4.72;1.92;;;18.10;60.20;;;;;;5029897;28;20196;-91
2022/09/04 08:10:53;;;;;;;4.38;2.00;;;18.20;60.60;;;;;;5054380;28;20219;-90
2022/09/04 08:13:36;;;;;;;3.72;1.90;;;18.20;59.70;;;;;;5054574;28;20156;-91
2022/09/04 08:16:29;;;;;;;2.88;2.00;;;18.30;60.30;;;;;;5054352;28;20225;-91
2022/09/04 08:19:07;;;;;;;6.43;2.28;;;18.40;59.60;;;;;;5054343;28;20261;-91
2022/09/04 08:21:36;;;;;;;4.63;2.13;;;18.50;59.90;;;;;;5056347;28;20203;-91
2022/09/04 08:24:08;;;;;;;6.43;2.30;;;18.60;59.20;;;;;;5054256;28;20187;-91
2022/09/04 08:26:42;;;;;;;4.55;2.63;;;18.70;59.30;;;;;;5054349;28;20237;-91
2022/09/04 08:29:38;;;;;;;4.07;2.05;;;18.80;59.20;;;;;;5054760;28;20688;-91
2022/09/04 08:32:40;;;;;;;8.68;2.45;;;18.90;59.10;;;;;;5054457;28;20638;-91
2022/09/04 08:35:20;;;;;;;4.57;2.88;;;19.10;58.90;;;;;;5054058;28;20172;-91
2022/09/04 08:37:59;;;;;;;3.08;2.25;;;19.20;58.70;;;;;;5054399;28;20210;-91
2022/09/04 08:41:01;;;;;;;5.70;2.78;;;19.30;58.60;;;;;;5055182;28;20196;-91
2022/09/04 08:43:52;;;;;;;2.65;2.28;;;19.40;58.40;;;;;;5058300;28;20672;-92
2022/09/04 08:46:20;;;;;;;3.58;2.97;;;19.40;57.60;;;;;;5054311;28;20172;-91
2022/09/04 08:49:12;;;;;;;2.70;2.38;;;19.50;58.40;;;;;;5055971;28;20183;-91
2022/09/04 08:52:10;;;;;;;2.90;2.55;;;19.80;57.40;;;;;;5054347;28;20206;-92
2022/09/04 08:54:59;;;;;;;3.33;2.20;;;19.90;57.40;;;;;;5058406;28;20254;-91
2022/09/04 08:57:54;;;;;;;4.85;2.58;;;19.90;57.10;;;;;;5056743;28;20215;-91
2022/09/04 09:00:21;;;;;;;5.53;3.28;;;20.00;57.00;;;;;;5028761;28;20268;-91
2022/09/04 09:03:17;;;;;;;3.05;2.00;;;20.00;55.80;;;;;;5055539;28;20180;-92
2022/09/04 09:06:21;;;;;;;5.57;2.65;;;20.20;56.90;;;;;;5057593;28;20175;-91
2022/09/04 09:09:23;;;;;;;3.80;2.35;;;20.30;55.70;;;;;;5058246;28;20199;-92
2022/09/04 09:12:26;;;;;;;5.72;2.60;;;20.30;56.30;;;;;;5057217;28;20206;-91
2022/09/04 09:15:08;;;;;;;5.40;2.38;;;20.40;55.80;;;;;;5056169;28;20243;-92
2022/09/04 09:17:38;;;;;;;6.18;2.60;;;20.60;56.00;;;;;;5058991;28;20629;-92
2022/09/04 09:20:23;;;;;;;3.90;2.88;;;20.70;54.90;;;;;;5056606;28;20294;-91
2022/09/04 09:23:36;;;;;;;3.47;2.33;;;20.80;55.90;;;;;;5058872;28;20187;-91
2022/09/04 09:26:23;;;;;;;9.32;3.55;;;21.00;54.50;;;;;;5064704;28;20168;-91
2022/09/04 09:29:28;;;;;;;4.32;2.80;;;21.20;54.40;;;;;;5059321;28;20708;-92
2022/09/04 09:32:03;;;;;;;2.67;2.38;;;21.30;52.60;;;;;;5062929;28;20223;-92
2022/09/04 09:35:05;;;;;;;2.83;2.33;;;21.30;53.10;;;;;;5060836;28;20510;-92
2022/09/04 09:38:12;;;;;;;3.05;2.10;;;21.30;53.50;;;;;;5063370;28;20305;-92
2022/09/04 09:41:12;;;;;;;6.28;2.33;;;21.40;53.30;;;;;;5069222;28;20196;-91
2022/09/04 09:44:13;;;;;;;5.38;2.78;;;21.10;53.60;;;;;;5067418;28;20176;-92
2022/09/04 09:47:16;;;;;;;3.17;2.60;;;21.20;53.00;;;;;;5034419;28;20192;-91
2022/09/04 09:50:07;;;;;;;8.30;2.40;;;21.40;52.00;;;;;;5067377;28;20191;-91
2022/09/04 09:53:10;;;;;;;2.80;2.40;;;21.50;51.70;;;;;;5063991;28;20172;-91
2022/09/04 09:56:23;;;;;;;4.40;2.50;;;21.70;51.90;;;;;;5067687;28;20167;-92
2022/09/04 09:59:04;;;;;;;2.92;2.40;;;21.80;51.70;;;;;;5031083;28;20200;-92
2022/09/04 10:01:29;;;;;;;2.83;2.35;;;21.90;51.40;;;;;;5064537;28;20175;-92
2022/09/04 10:04:15;;;;;;;2.60;2.20;;;22.00;50.60;;;;;;5061414;28;20183;-91
2022/09/04 10:06:56;;;;;;;3.80;2.28;;;22.10;51.70;;;;;;5061327;28;20168;-91
2022/09/04 10:09:42;;;;;;;6.47;2.17;;;22.10;50.00;;;;;;5063279;28;20203;-92
2022/09/04 10:12:17;;;;;;;4.80;2.58;;;22.30;49.80;;;;;;5065157;28;20176;-92
2022/09/04 10:15:15;;;;;;;3.47;2.45;;;22.40;50.40;;;;;;5062090;28;20622;-91
2022/09/04 10:17:51;;;;;;;4.47;2.00;;;22.40;49.70;;;;;;5068404;28;20183;-92
2022/09/04 10:20:45;;;;;;;4.85;2.17;;;22.50;48.40;;;;;;5072779;28;20183;-91
2022/09/04 10:23:49;;;;;;;3.17;1.90;;;22.30;48.60;;;;;;5073084;28;20164;-91
2022/09/04 10:26:18;;;;;;;3.17;2.70;;;22.30;48.60;;;;;;5068079;28;20172;-91
2022/09/04 10:29:04;;;;;;;4.93;2.80;;;22.50;48.70;;;;;;5066930;28;20235;-92
2022/09/04 10:32:00;;;;;;;3.25;2.47;;;22.60;48.00;;;;;;5066479;28;20200;-91
2022/09/04 10:34:42;;;;;;;6.20;2.30;;;22.70;47.80;;;;;;5065485;28;20160;-92
2022/09/04 10:37:34;;;;;;;2.92;2.05;;;22.90;47.60;;;;;;5070858;28;20157;-92
2022/09/04 10:40:34;;;;;;;1.85;1.75;;;22.90;48.60;;;;;;5068228;28;20238;-92
2022/09/04 10:43:25;;;;;;;6.88;2.38;;;23.10;46.50;;;;;;5065938;28;20166;-91
2022/09/04 10:46:05;;;;;;;6.68;2.25;;;23.20;45.50;;;;;;5065034;28;20169;-91
2022/09/04 10:48:59;;;;;;;7.35;2.20;;;23.40;46.40;;;;;;5070842;28;20326;-92
2022/09/04 10:51:57;;;;;;;3.85;2.28;;;23.40;46.10;;;;;;5066102;28;20199;-91
2022/09/04 10:54:46;;;;;;;3.35;1.88;;;23.50;46.00;;;;;;5072947;28;20254;-92
2022/09/04 10:57:51;;;;;;;4.22;2.30;;;23.70;45.30;;;;;;5074170;28;20152;-92
2022/09/04 11:00:48;;;;;;;4.05;2.38;;;23.60;44.50;;;;;;5076526;28;20168;-92
2022/09/04 11:03:27;;;;;;;2.90;2.13;;;23.60;43.90;;;;;;5077494;28;20172;-92
2022/09/04 11:06:38;;;;;;;7.10;1.92;;;23.50;42.70;;;;;;5075244;28;20169;-91
2022/09/04 11:09:15;;;;;;;5.43;2.05;;;23.60;43.10;;;;;;5069856;28;20199;-92
2022/09/04 11:12:04;;;;;;;5.30;1.95;;;23.80;43.40;;;;;;5074281;28;20214;-91
2022/09/04 11:15:06;;;;;;;3.00;2.28;;;23.90;43.70;;;;;;5076279;28;20618;-92
2022/09/04 11:18:23;;;;;;;2.85;2.33;;;23.80;43.60;;;;;;5034890;28;20202;-91
2022/09/04 11:21:06;;;;;;;7.47;2.30;;;23.90;42.20;;;;;;5041075;28;20552;-91
2022/09/04 11:24:12;;;;;;;3.88;2.05;;;23.90;42.40;;;;;;5071822;28;20199;-92
2022/09/04 11:27:00;;;;;;;4.70;2.20;;;23.80;41.70;;;;;;5075798;28;20245;-91
2022/09/04 11:29:41;;;;;;;3.45;2.10;;;23.80;41.70;;;;;;5070137;28;20196;-91
2022/09/04 11:32:51;;;;;;;3.35;1.75;;;23.90;42.40;;;;;;5067600;28;20220;-92
2022/09/04 11:35:39;;;;;;;2.65;1.90;;;24.00;42.30;;;;;;5072587;28;20637;-92
2022/09/04 11:38:11;;;;;;;6.28;2.40;;;24.00;43.00;;;;;;5069844;28;20200;-92
2022/09/04 11:41:17;;;;;;;3.50;1.95;;;24.10;42.00;;;;;;5065285;28;20176;-91
2022/09/04 11:43:45;;;;;;;2.97;1.83;;;24.20;41.60;;;;;;5071588;28;20179;-92
2022/09/04 11:46:33;;;;;;;4.47;2.30;;;24.20;41.40;;;;;;5070042;28;20176;-92
2022/09/04 11:49:43;;;;;;;4.07;2.20;;;24.30;42.60;;;;;;5073027;28;20186;-92
2022/09/04 11:52:27;;;;;;;4.60;2.00;;;24.50;42.30;;;;;;5077392;28;20175;-92
2022/09/04 11:55:12;;;;;;;2.47;2.15;;;24.30;42.30;;;;;;5074391;28;20259;-92
2022/09/04 11:58:13;;;;;;;2.92;1.73;;;24.00;42.70;;;;;;5072910;28;20196;-92
2022/09/04 12:01:23;;;;;;;4.43;2.08;;;24.30;42.90;;;;;;5074688;28;20172;-92
2022/09/04 12:04:21;;;;;;;1.88;1.67;;;24.60;41.60;;;;;;4997421;28;20686;-92
2022/09/04 12:07:19;;;;;;;5.43;2.28;;;24.40;41.90;;;;;;5067911;28;20178;-92
2022/09/04 12:10:07;;;;;;;1.95;1.73;;;24.60;42.20;;;;;;5069597;28;20203;-92
2022/09/04 12:12:56;;;;;;;11.55;2.17;;;24.80;40.90;;;;;;5074340;28;20155;-91
2022/09/04 12:15:43;;;;;;;2.90;1.90;;;24.90;41.50;;;;;;5074042;28;20219;-92
2022/09/04 12:18:32;;;;;;;3.42;1.80;;;24.70;42.50;;;;;;5074110;28;20195;-91
2022/09/04 12:20:57;;;;;;;2.70;1.98;;;24.90;41.20;;;;;;5072562;28;20179;-91
2022/09/04 12:23:26;;;;;;;1.70;1.60;;;24.90;40.30;;;;;;5075917;28;20184;-92
2022/09/04 12:26:29;;;;;;;2.70;1.70;;;24.80;40.50;;;;;;5074120;28;20211;-91
2022/09/04 12:29:16;;;;;;;2.85;1.55;;;25.00;40.40;;;;;;5071625;28;20265;-91
2022/09/04 12:32:07;;;;;;;3.33;1.90;;;25.10;39.30;;;;;;5034856;28;20219;-92
2022/09/04 12:35:12;;;;;;;3.42;1.73;;;25.00;39.20;;;;;;5073690;28;20168;-92
2022/09/04 12:38:03;;;;;;;3.95;2.30;;;25.20;38.80;;;;;;5072355;28;20206;-92
2022/09/04 12:40:42;;;;;;;2.63;1.85;;;25.20;39.80;;;;;;5073801;28;20259;-92
2022/09/04 12:43:33;;;;;;;3.13;1.95;;;25.10;39.80;;;;;;5069046;28;20258;-92
2022/09/04 12:46:11;;;;;;;4.38;1.85;;;25.10;39.90;;;;;;5087956;23;20236;-91
2022/09/04 12:49:03;;;;;;;12.73;1.80;;;25.20;37.90;;;;;;5061243;28;20261;-90
2022/09/04 12:51:54;;;;;;;2.03;1.80;;;25.00;38.50;;;;;;5058870;28;20195;-90
2022/09/04 12:54:39;;;;;;;3.38;1.83;;;25.00;38.90;;;;;;5059685;28;20224;-92
2022/09/04 12:57:34;;;;;;;3.22;1.92;;;25.10;39.50;;;;;;5062140;28;20184;-91
2022/09/04 13:00:13;;;;;;;3.58;2.35;;;25.40;39.90;;;;;;5063313;28;20174;-90
2022/09/04 13:03:00;;;;;;;3.42;1.90;;;25.70;38.20;;;;;;5063829;28;20195;-91
2022/09/04 13:05:34;;;;;;;3.03;1.80;;;25.80;37.70;;;;;;5059934;28;20211;-92
2022/09/04 13:08:18;;;;;;;3.03;1.90;;;25.80;36.70;;;;;;5068815;28;20199;-91
2022/09/04 13:10:59;;;;;;;2.42;2.00;;;25.80;37.70;;;;;;5070051;28;20200;-91
2022/09/04 13:14:03;;;;;;;3.10;2.33;;;25.90;38.10;;;;;;5056658;28;20164;-90
2022/09/04 13:16:47;;;;;;;4.75;2.10;;;25.80;37.70;;;;;;5056383;28;20170;-90
2022/09/04 13:19:34;;;;;;;3.53;1.80;;;25.80;38.50;;;;;;5055400;28;20288;-90
2022/09/04 13:22:06;;;;;;;3.58;1.90;;;25.50;38.40;;;;;;5055125;28;20242;-91
2022/09/04 13:25:06;;;;;;;3.10;1.88;;;25.30;39.60;;;;;;5055270;28;20168;-91
2022/09/04 13:27:47;;;;;;;2.55;2.10;;;25.30;38.50;;;;;;5054643;28;20200;-91
2022/09/04 13:30:23;;;;;;;3.85;2.25;;;25.20;38.90;;;;;;5055156;28;20238;-90
2022/09/04 13:32:57;;;;;;;3.22;2.30;;;25.00;40.20;;;;;;5054499;28;20160;-90
2022/09/04 13:35:50;;;;;;;3.35;2.00;;;25.10;39.40;;;;;;5055166;28;20170;-90
2022/09/04 13:38:48;;;;;;;2.10;1.90;;;25.20;39.90;;;;;;5055263;28;20566;-90
2022/09/04 13:41:37;;;;;;;3.75;2.15;;;25.20;39.70;;;;;;5055536;28;20183;-90
2022/09/04 13:44:21;;;;;;;2.70;1.58;;;25.30;39.80;;;;;;5053918;28;20175;-89
2022/09/04 13:47:01;;;;;;;2.83;2.17;;;25.30;39.40;;;;;;5056595;28;20203;-90
2022/09/04 13:49:56;;;;;;;3.03;2.28;;;25.40;39.80;;;;;;5055214;28;20164;-90
2022/09/04 14:01:21;;;;;;;3.13;2.25;;;25.50;38.60;;;;;;5438853;22;21814;-91
2022/09/04 14:03:50;;;;;;;2.88;2.20;;;25.40;39.20;;;;;;5031449;28;20181;-90
2022/09/04 14:06:25;;;;;;;9.02;1.98;;;25.20;39.20;;;;;;5008760;28;20173;-90
2022/09/04 14:08:54;;;;;;;4.05;2.47;;;25.20;39.90;;;;;;5303837;23;20223;-92
2022/09/04 14:11:40;;;;;;;2.55;1.80;;;25.00;40.20;;;;;;5053819;28;20227;-93
2022/09/04 14:27:34;;;;;;;4.15;2.28;;;25.50;38.40;;;;;;5068584;28;20218;-90
2022/09/04 14:32:59;;;;;;;4.03;1.92;;;25.60;38.50;;;;;;5138606;22;20223;-93
2022/09/04 14:35:46;;;;;;;3.45;1.77;;;25.60;38.70;;;;;;5371251;23;20340;-92
2022/09/04 14:41:09;;;;;;;2.72;1.70;;;25.80;38.50;;;;;;5134599;23;20224;-93
2022/09/04 14:49:15;;;;;;;;;;;;;;;;;;;;;
2022/09/04 15:45:10;;;;;;;4.57;2.10;;;26.00;38.90;;;;;;5851747;23;20240;-93
2022/09/04 15:47:34;;;;;;;1.95;1.65;;;26.00;38.00;;;;;;5082087;23;20237;-93
2022/09/04 15:50:09;;;;;;;2.58;1.55;;;26.00;37.70;;;;;;5022153;28;20178;-91
2022/09/04 15:53:10;;;;;;;3.38;1.77;;;26.00;38.50;;;;;;5023403;28;20216;-91
2022/09/04 16:14:15;;;;;;;6.53;1.95;;;25.80;38.10;;;;;;5073142;28;20225;-93
2022/09/04 16:16:59;;;;;;;5.45;2.00;;;25.60;38.50;;;;;;5049040;28;20633;-92
2022/09/04 16:19:51;;;;;;;5.45;2.00;;;25.30;39.00;;;;;;5030753;28;20677;-91
2022/09/04 16:22:22;;;;;;;1.77;1.67;;;24.90;40.20;;;;;;5025859;28;20216;-92
2022/09/04 16:30:12;;;;;;;2.85;1.70;;;24.90;39.40;;;;;;5375346;23;20228;-92
2022/09/04 16:32:42;;;;;;;3.13;1.80;;;24.80;39.80;;;;;;5124369;23;20241;-91
2022/09/04 16:35:18;;;;;;;2.47;1.70;;;24.70;40.60;;;;;;4998806;28;20247;-91
2022/09/04 16:38:10;;;;;;;2.60;1.90;;;24.50;40.20;;;;;;5017869;28;20264;-92
2022/09/04 16:40:53;;;;;;;4.50;1.83;;;24.30;40.50;;;;;;4998992;28;20220;-91